KLUL

Hesler-Noble Field Airport

Laurel, Mississippi, USA
METAR KLUL 191415Z AUTO 09003KT 10SM CLR 19/12 A3026 RMK AO2 T01860118
Observed Flight Rules
Oct-19 @ 14:15 UTC (8 minutes ago) Visual Flight Rules
Wind Visibility Clouds
90° at 3 knots 10 miles
  • Clear skies
Temperatures Readings
Current 19°C / 66°F
Dewpoint 12°C / 54°F
Humidity 64%
Altimeter 30.26" Hg
Pressure 1025 hPa
Elevation 73
METAR KLUL 191415Z AUTO 09003KT 10SM CLR 19/12 A3026 RMK AO2 T01860118
Observed Flight Rules
Oct-19 @ 14:15 UTC
(8 minutes ago)
VFR
Wind Visibility
90° at 3 knots 10 miles
Clouds
  • Clear skies
Temperature Dewpoint
19°C / 66°F 12°C / 54°F
Humidity Altimeter Pressure
64% 30.26" Hg 1025 hPa